Terminal Aerodrome Forecast
Issued by NWS

Home | Current Version | Previous Version | Text Only | Print | Product List | Glossary Off
Versions: 1 2 3 4 5 6 7 8 9 10 11 12 13 14 15 16 17 18 19

000
FTUS43 KGRB 182330
TAFCWA
TAF
KCWA 182330Z 1900/1924 29006KT P6SM SCT035 BKN100
     FM190500 30003KT P6SM SCT150
      TEMPO 1909/1913 5SM BR
     FM191500 26008KT P6SM FEW040 SCT200
      AMD LTD TO CLD VIS AND WIND 1903/1911=

USA.gov is the U.S. government's official web portal to all federal, state and local government web resources and services.